createdAt,value
2023-04-05T00:01:39.358Z,102237.78
2023-04-05T00:04:08.220Z,102241.66
2023-04-05T00:06:35.235Z,102234.88
2023-04-05T00:09:03.956Z,102229.91
2023-04-05T00:11:32.171Z,102227.38
2023-04-05T00:14:00.715Z,102218.38
2023-04-05T00:16:28.302Z,102221.78
2023-04-05T00:18:56.726Z,102219.25
2023-04-05T00:21:24.169Z,102215.38
2023-04-05T00:23:51.864Z,102211.16
2023-04-05T00:26:19.024Z,102203.63
2023-04-05T00:28:45.983Z,102200.84
2023-04-05T00:31:12.795Z,102206.41
2023-04-05T00:33:39.727Z,102209.22
2023-04-05T00:36:10.309Z,102198.06
2023-04-05T00:38:37.362Z,102206.41
2023-04-05T00:41:04.300Z,102199.72
2023-04-05T00:43:31.197Z,102207.97
2023-04-05T00:45:58.076Z,102202.41
2023-04-05T00:48:25.792Z,102198.53
2023-04-05T00:50:52.930Z,102197.44
2023-04-05T00:53:20.288Z,102198.28
2023-04-05T00:55:48.443Z,102194.66
2023-04-05T00:58:18.452Z,102203.03
2023-04-05T01:00:47.998Z,102189.94
2023-04-05T01:03:15.038Z,102192.97
2023-04-05T01:05:47.676Z,102182.06
2023-04-05T01:08:17.790Z,102177.31
2023-04-05T01:10:47.473Z,102179.53
2023-04-05T01:13:16.649Z,102168.38
2023-04-05T01:15:43.700Z,102171.16
2023-04-05T01:18:11.618Z,102168.38
2023-04-05T01:20:41.150Z,102155.75
2023-04-05T01:23:11.670Z,102152.16
2023-04-05T01:25:38.786Z,102150.47
2023-04-05T01:28:08.734Z,102146.59
2023-04-05T01:30:38.142Z,102148.25
2023-04-05T01:33:14.639Z,102137.94
2023-04-05T01:35:45.425Z,102131.53
2023-04-05T01:38:15.668Z,102137.38
2023-04-05T01:40:42.971Z,102141.00
2023-04-05T01:43:13.021Z,102134.81
2023-04-05T01:45:40.259Z,102141.81
2023-04-05T01:48:07.222Z,102134.59
2023-04-05T01:50:34.034Z,102127.88
2023-04-05T01:53:00.770Z,102116.75
2023-04-05T01:55:27.650Z,102115.66
2023-04-05T01:57:56.023Z,102114.22
2023-04-05T02:00:23.028Z,102113.94
2023-04-05T02:02:54.739Z,102111.16
2023-04-05T02:05:21.883Z,102104.41
2023-04-05T02:07:48.779Z,102106.94
2023-04-05T02:10:16.241Z,102099.94
2023-04-05T02:12:43.234Z,102098.34
2023-04-05T02:15:10.373Z,102101.59
2023-04-05T02:17:40.184Z,102094.09
2023-04-05T02:20:08.054Z,102096.03
2023-04-05T02:22:34.816Z,102106.34
2023-04-05T02:25:02.024Z,102093.53
2023-04-05T02:27:28.884Z,102090.72
2023-04-05T02:29:57.617Z,102089.88
2023-04-05T02:32:25.073Z,102082.38
2023-04-05T02:34:52.865Z,102082.84
2023-04-05T02:37:20.111Z,102086.50
2023-04-05T02:39:47.208Z,102083.69
2023-04-05T02:42:14.056Z,102095.69
2023-04-05T02:44:40.975Z,102091.81
2023-04-05T02:47:07.741Z,102088.41
2023-04-05T02:49:34.562Z,102087.56
2023-04-05T02:52:01.295Z,102094.28
2023-04-05T02:54:28.070Z,102084.78
2023-04-05T02:56:58.222Z,102080.91
2023-04-05T02:59:25.361Z,102086.16
2023-04-05T03:01:52.185Z,102078.03
2023-04-05T03:04:19.194Z,102069.94
2023-04-05T03:06:48.991Z,102070.78
2023-04-05T03:09:15.856Z,102070.78
2023-04-05T03:11:42.700Z,102067.16
2023-04-05T03:14:09.533Z,102075.25
2023-04-05T03:16:37.457Z,102065.22
2023-04-05T03:19:06.702Z,102065.78
2023-04-05T03:21:34.265Z,102060.47
2023-04-05T03:24:01.209Z,102062.16
2023-04-05T03:26:27.999Z,102063.50
2023-04-05T03:28:54.787Z,102058.19
2023-04-05T03:31:21.879Z,102063.50
2023-04-05T03:33:48.653Z,102065.44
2023-04-05T03:36:16.936Z,102061.31
2023-04-05T03:38:44.761Z,102056.47
2023-04-05T03:41:11.702Z,102059.03
2023-04-05T03:43:38.505Z,102059.03
2023-04-05T03:46:05.289Z,102052.38
2023-04-05T03:48:32.033Z,102063.50
2023-04-05T03:50:59.122Z,102054.53
2023-04-05T03:53:26.730Z,102052.84
2023-04-05T03:55:54.538Z,102042.56
2023-04-05T03:58:21.422Z,102027.75
2023-04-05T04:00:50.902Z,102031.41
2023-04-05T04:03:17.800Z,102033.34
2023-04-05T04:05:44.986Z,102026.09
2023-04-05T04:08:13.310Z,102033.84
2023-04-05T04:10:40.096Z,102025.25
2023-04-05T04:13:06.855Z,102022.47
2023-04-05T04:15:33.643Z,102024.06
2023-04-05T04:18:02.711Z,102029.38
2023-04-05T04:20:29.679Z,102029.13
2023-04-05T04:22:58.906Z,102028.78
2023-04-05T04:25:26.936Z,102030.50
2023-04-05T04:27:54.975Z,102031.91
2023-04-05T04:30:22.954Z,102025.72
2023-04-05T04:32:59.089Z,102034.94
2023-04-05T04:35:29.373Z,102032.66
2023-04-05T04:37:58.322Z,102039.94
2023-04-05T04:40:45.093Z,102037.47
2023-04-05T04:43:14.790Z,102039.19
2023-04-05T04:45:42.081Z,102041.88
2023-04-05T04:48:09.172Z,102039.09
2023-04-05T04:50:36.312Z,102043.81
2023-04-05T04:53:03.307Z,102040.78
2023-04-05T04:55:30.761Z,102041.25
2023-04-05T04:57:57.528Z,102041.25
2023-04-05T05:00:25.219Z,102044.06
2023-04-05T05:02:52.776Z,102049.63
2023-04-05T05:05:22.997Z,102048.78
2023-04-05T05:07:50.197Z,102048.53
2023-04-05T05:10:17.002Z,102038.75
2023-04-05T05:12:43.811Z,102036.81
2023-04-05T05:15:11.050Z,102035.97
2023-04-05T05:17:39.703Z,102038.75
2023-04-05T05:20:11.336Z,102034.84
2023-04-05T05:22:38.937Z,102034.50
2023-04-05T05:25:06.534Z,102042.63
2023-04-05T05:27:34.505Z,102038.75
2023-04-05T05:30:01.559Z,102040.41
2023-04-05T05:32:28.509Z,102044.31
2023-04-05T05:34:55.541Z,102047.09
2023-04-05T05:37:29.817Z,102043.72
2023-04-05T05:39:56.778Z,102038.97
2023-04-05T05:42:24.124Z,102040.06
2023-04-05T05:44:50.953Z,102040.34
2023-04-05T05:47:17.738Z,102035.84
2023-04-05T05:49:44.574Z,102041.44
2023-04-05T05:52:11.429Z,102036.72
2023-04-05T05:54:38.347Z,102034.50
2023-04-05T05:57:05.334Z,102029.78
2023-04-05T05:59:32.290Z,102038.75
2023-04-05T06:01:59.264Z,102037.91
2023-04-05T06:04:26.751Z,102028.09
2023-04-05T06:06:54.945Z,102029.44
2023-04-05T06:09:24.305Z,102027.22
2023-04-05T06:11:56.729Z,102035.59
2023-04-05T06:14:24.684Z,102028.34
2023-04-05T06:16:51.635Z,102034.16
2023-04-05T06:19:18.611Z,102026.66
2023-04-05T06:21:47.998Z,102029.94
2023-04-05T06:24:14.839Z,102016.59
2023-04-05T06:26:41.745Z,102023.25
2023-04-05T06:29:08.694Z,102020.22
2023-04-05T06:31:36.445Z,102024.38
2023-04-05T06:34:03.316Z,102018.81
2023-04-05T06:36:32.100Z,102020.47
2023-04-05T06:38:59.594Z,102020.75
2023-04-05T06:41:28.031Z,102016.03
2023-04-05T06:43:55.147Z,102021.31
2023-04-05T06:46:22.239Z,102016.84
2023-04-05T06:48:50.230Z,102000.97
2023-04-05T06:51:17.406Z,102010.69
2023-04-05T06:53:44.325Z,102009.59
2023-04-05T06:56:11.557Z,102004.59
2023-04-05T06:58:39.153Z,102008.84
2023-04-05T07:01:06.195Z,102004.59
2023-04-05T07:03:34.129Z,102002.16
2023-04-05T07:06:01.525Z,102009.09
2023-04-05T07:08:29.253Z,102000.50
2023-04-05T07:10:56.300Z,102005.69
2023-04-05T07:13:24.262Z,102004.13
2023-04-05T07:15:51.917Z,102002.44
2023-04-05T07:18:19.597Z,101996.00
2023-04-05T07:20:48.097Z,101992.13
2023-04-05T07:23:15.076Z,101997.72
2023-04-05T07:25:42.040Z,101997.72
2023-04-05T07:28:09.028Z,101999.03
2023-04-05T07:30:37.322Z,102004.38
2023-04-05T07:33:04.675Z,101992.38
2023-04-05T07:35:31.953Z,101991.28
2023-04-05T07:37:58.964Z,101997.09
2023-04-05T07:40:26.131Z,101997.72
2023-04-05T07:42:53.276Z,102000.97
2023-04-05T07:45:20.450Z,101993.72
2023-04-05T07:47:47.616Z,101990.09
2023-04-05T07:50:25.505Z,101987.31
2023-04-05T07:52:52.512Z,101993.47
2023-04-05T07:55:19.845Z,101989.81
2023-04-05T07:57:46.847Z,101981.47
2023-04-05T08:00:19.947Z,101990.69
2023-04-05T08:02:49.513Z,101975.41
2023-04-05T08:05:16.773Z,101987.66
2023-04-05T08:07:43.847Z,101975.66
2023-04-05T08:10:16.280Z,101980.13
2023-04-05T08:12:43.171Z,101972.03
2023-04-05T08:15:10.552Z,101983.16
2023-04-05T08:17:37.542Z,101976.50
2023-04-05T08:20:04.796Z,101976.25
2023-04-05T08:22:34.270Z,101976.25
2023-04-05T08:25:02.137Z,101976.50
2023-04-05T08:27:29.590Z,101974.31
2023-04-05T08:29:56.625Z,101979.28
2023-04-05T08:32:23.799Z,101974.31
2023-04-05T08:34:50.722Z,101976.25
2023-04-05T08:37:17.887Z,101968.38
2023-04-05T08:39:45.330Z,101977.34
2023-04-05T08:42:18.110Z,101979.88
2023-04-05T08:44:46.517Z,101979.06
2023-04-05T08:47:22.774Z,101975.41
2023-04-05T08:49:50.174Z,101974.06
2023-04-05T08:52:17.299Z,101978.78
2023-04-05T08:54:44.769Z,101977.09
2023-04-05T08:57:12.085Z,101965.47
2023-04-05T08:59:41.433Z,101970.19
2023-04-05T09:02:15.065Z,101959.56
2023-04-05T09:04:45.309Z,101970.19
2023-04-05T09:07:14.082Z,101963.53
2023-04-05T09:09:43.642Z,101959.03
2023-04-05T09:12:11.423Z,101969.00
2023-04-05T09:14:39.636Z,101957.69
2023-04-05T09:17:06.893Z,101954.88
2023-04-05T09:19:34.063Z,101953.72
2023-04-05T09:22:03.362Z,101943.16
2023-04-05T09:24:31.528Z,101940.38
2023-04-05T09:27:08.257Z,101937.31
2023-04-05T09:29:35.387Z,101942.31
2023-04-05T09:32:04.272Z,101939.28
2023-04-05T09:34:33.950Z,101923.06
2023-04-05T09:37:03.305Z,101923.66
2023-04-05T09:39:33.254Z,101929.25
2023-04-05T09:42:10.158Z,101927.03
2023-04-05T09:44:46.287Z,101917.81
2023-04-05T09:47:17.763Z,101922.31
2023-04-05T09:49:44.819Z,101917.00
2023-04-05T09:52:21.812Z,101914.56
2023-04-05T09:54:48.977Z,101922.06
2023-04-05T09:57:17.299Z,101915.66
2023-04-05T09:59:45.044Z,101917.66
2023-04-05T10:02:12.493Z,101905.91
2023-04-05T10:04:41.734Z,101907.63
2023-04-05T10:07:12.322Z,101909.56
2023-04-05T10:09:41.993Z,101909.56
2023-04-05T10:12:10.078Z,101905.69
2023-04-05T10:14:38.583Z,101902.38
2023-04-05T10:17:08.754Z,101905.44
2023-04-05T10:19:45.339Z,101899.88
2023-04-05T10:22:15.403Z,101903.50
2023-04-05T10:24:50.085Z,101908.56
2023-04-05T10:27:19.537Z,101901.28
2023-04-05T10:29:52.025Z,101903.31
2023-04-05T10:32:23.840Z,101895.22
2023-04-05T10:34:57.727Z,101892.75
2023-04-05T10:37:32.543Z,101896.13
2023-04-05T10:40:03.462Z,101890.31
2023-04-05T10:42:36.904Z,101888.44
2023-04-05T10:45:05.250Z,101887.94
2023-04-05T10:47:35.779Z,101884.06
2023-04-05T10:50:04.766Z,101880.75
2023-04-05T10:52:33.831Z,101877.47
2023-04-05T10:55:03.551Z,101876.09
2023-04-05T10:57:30.853Z,101875.56
2023-04-05T11:00:00.221Z,101871.69
2023-04-05T11:02:29.169Z,101871.69
2023-04-05T11:04:57.737Z,101874.22
2023-04-05T11:07:24.950Z,101874.56
2023-04-05T11:09:52.991Z,101865.34
2023-04-05T11:12:21.010Z,101868.97
2023-04-05T11:14:47.913Z,101873.47
2023-04-05T11:17:24.070Z,101864.00
2023-04-05T11:19:52.891Z,101861.22
2023-04-05T11:22:29.136Z,101851.47
2023-04-05T11:24:58.388Z,101850.94
2023-04-05T11:27:26.367Z,101851.56
2023-04-05T11:29:54.801Z,101853.50
2023-04-05T11:32:22.098Z,101844.88
2023-04-05T11:35:02.152Z,101853.25
2023-04-05T11:37:38.109Z,101844.59
2023-04-05T11:40:14.096Z,101840.19
2023-04-05T11:42:41.892Z,101837.34
2023-04-05T11:45:09.237Z,101831.78
2023-04-05T11:47:37.972Z,101830.09
2023-04-05T11:50:09.937Z,101820.34
2023-04-05T11:52:36.791Z,101813.16
2023-04-05T11:55:05.347Z,101815.94
2023-04-05T11:57:33.589Z,101813.41
2023-04-05T12:00:00.776Z,101815.09
2023-04-05T12:02:35.458Z,101812.81
2023-04-05T12:05:02.624Z,101816.22
2023-04-05T12:07:32.817Z,101811.97
2023-04-05T12:10:01.404Z,101815.94
2023-04-05T12:12:28.456Z,101810.94
2023-04-05T12:15:05.025Z,101805.38
2023-04-05T12:17:39.774Z,101807.13
2023-04-05T12:20:07.535Z,101801.28
2023-04-05T12:22:35.169Z,101795.69
2023-04-05T12:25:02.414Z,101799.88
2023-04-05T12:27:29.926Z,101797.91
2023-04-05T12:30:06.207Z,101795.38
2023-04-05T12:32:37.056Z,101796.53
2023-04-05T12:35:13.066Z,101787.31
2023-04-05T12:37:41.175Z,101799.00
2023-04-05T12:40:09.040Z,101790.13
2023-04-05T12:42:36.749Z,101784.81
2023-04-05T12:45:08.467Z,101795.97
2023-04-05T12:47:36.457Z,101790.97
2023-04-05T12:50:12.982Z,101789.88
2023-04-05T12:52:39.876Z,101788.19
2023-04-05T12:55:15.732Z,101783.97
2023-04-05T12:57:43.791Z,101780.06
2023-04-05T13:00:11.774Z,101775.59
2023-04-05T13:02:38.827Z,101782.84
2023-04-05T13:05:06.182Z,101776.44
2023-04-05T13:07:36.773Z,101772.22
2023-04-05T13:10:04.173Z,101767.25
2023-04-05T13:12:31.014Z,101772.53
2023-04-05T13:14:58.032Z,101771.44
2023-04-05T13:17:25.472Z,101761.13
2023-04-05T13:19:52.509Z,101755.81
2023-04-05T13:22:19.376Z,101749.38
2023-04-05T13:24:46.356Z,101749.38
2023-04-05T13:27:13.930Z,101742.97
2023-04-05T13:29:41.334Z,101735.44
2023-04-05T13:32:08.193Z,101741.84
2023-04-05T13:34:35.042Z,101731.81
2023-04-05T13:37:02.188Z,101723.47
2023-04-05T13:39:31.663Z,101720.66
2023-04-05T13:41:58.768Z,101730.44
2023-04-05T13:44:25.904Z,101718.97
2023-04-05T13:46:58.688Z,101709.22
2023-04-05T13:49:34.381Z,101719.81
2023-04-05T13:52:01.322Z,101706.19
2023-04-05T13:54:28.560Z,101706.97
2023-04-05T13:56:55.870Z,101701.16
2023-04-05T13:59:22.831Z,101699.72
2023-04-05T14:01:50.167Z,101699.16
2023-04-05T14:04:17.256Z,101692.78
2023-04-05T14:06:44.630Z,101695.81
2023-04-05T14:09:11.592Z,101687.19
2023-04-05T14:11:39.174Z,101687.75
2023-04-05T14:14:07.431Z,101685.81
2023-04-05T14:16:34.447Z,101674.06
2023-04-05T14:19:01.393Z,101676.84
2023-04-05T14:21:29.262Z,101672.13
2023-04-05T14:23:58.673Z,101673.81
2023-04-05T14:26:26.571Z,101661.56
2023-04-05T14:28:53.931Z,101662.66
2023-04-05T14:31:20.905Z,101653.44
2023-04-05T14:33:48.077Z,101653.72
2023-04-05T14:36:15.234Z,101651.75
2023-04-05T14:38:44.547Z,101651.19
2023-04-05T14:41:12.293Z,101640.88
2023-04-05T14:43:39.340Z,101636.41
2023-04-05T14:46:06.383Z,101636.66
2023-04-05T14:48:34.518Z,101638.59
2023-04-05T14:51:13.005Z,101627.72
2023-04-05T14:53:40.965Z,101630.53
2023-04-05T14:56:18.890Z,101623.84
2023-04-05T14:58:45.907Z,101621.84
2023-04-05T15:01:19.780Z,101621.84
2023-04-05T15:03:48.924Z,101618.22
2023-04-05T15:06:16.776Z,101625.19
2023-04-05T15:08:43.774Z,101609.25
2023-04-05T15:11:24.499Z,101613.47
2023-04-05T15:13:51.885Z,101598.94
2023-04-05T15:16:21.688Z,101599.53
2023-04-05T15:18:49.047Z,101607.31
2023-04-05T15:21:18.756Z,101603.13
2023-04-05T15:23:45.906Z,101593.63
2023-04-05T15:26:13.215Z,101592.28
2023-04-05T15:28:44.890Z,101589.72
2023-04-05T15:31:14.155Z,101590.84
2023-04-05T15:33:41.411Z,101585.00
2023-04-05T15:36:08.413Z,101588.34
2023-04-05T15:38:35.524Z,101587.19
2023-04-05T15:41:17.433Z,101587.78
2023-04-05T15:43:49.049Z,101590.56
2023-04-05T15:46:19.488Z,101582.81
2023-04-05T15:48:47.339Z,101588.69
2023-04-05T15:51:17.697Z,101585.91
2023-04-05T15:54:01.015Z,101576.69
2023-04-05T15:56:32.614Z,101575.84
2023-04-05T15:59:00.639Z,101579.47
2023-04-05T16:01:31.230Z,101576.94
2023-04-05T16:03:58.306Z,101570.25
2023-04-05T16:06:28.670Z,101564.69
2023-04-05T16:09:04.687Z,101563.84
2023-04-05T16:12:10.052Z,101567.22
2023-04-05T16:14:37.316Z,101560.78
2023-04-05T16:19:51.697Z,101563.03
2023-04-05T16:22:18.687Z,101556.63
2023-04-05T16:24:45.857Z,101553.84
2023-04-05T16:29:57.633Z,101559.41
2023-04-05T16:32:30.567Z,101556.06
2023-04-05T16:34:57.749Z,101558.56
2023-04-05T16:37:25.286Z,101551.59
2023-04-05T16:39:52.646Z,101545.41
2023-04-05T16:42:19.629Z,101549.06
2023-04-05T16:44:46.947Z,101544.91
2023-04-05T16:47:13.861Z,101547.69
2023-04-05T16:49:41.068Z,101553.28
2023-04-05T16:52:08.335Z,101552.69
2023-04-05T16:54:41.124Z,101554.13
2023-04-05T16:57:08.883Z,101548.78
2023-04-05T16:59:36.138Z,101551.00
2023-04-05T17:02:19.772Z,101541.78
2023-04-05T17:04:47.984Z,101546.56
2023-04-05T17:07:21.941Z,101547.38
2023-04-05T17:09:50.669Z,101551.28
2023-04-05T17:12:17.964Z,101543.75
2023-04-05T17:14:45.022Z,101550.16
2023-04-05T17:17:12.328Z,101544.56
2023-04-05T17:19:39.927Z,101545.72
2023-04-05T17:22:07.081Z,101543.44
2023-04-05T17:24:35.032Z,101541.50
2023-04-05T17:27:02.954Z,101541.50
2023-04-05T17:29:37.234Z,101549.28
2023-04-05T17:32:04.299Z,101543.72
2023-04-05T17:34:31.255Z,101540.63
2023-04-05T17:36:58.325Z,101534.22
2023-04-05T17:39:25.676Z,101536.19
2023-04-05T17:41:55.190Z,101537.00
2023-04-05T17:44:22.540Z,101537.00
2023-04-05T17:47:01.315Z,101536.72
2023-04-05T17:49:33.300Z,101535.34
2023-04-05T17:52:01.043Z,101544.28
2023-04-05T17:54:28.173Z,101534.75
2023-04-05T17:56:55.270Z,101540.09
2023-04-05T17:59:23.901Z,101530.88
2023-04-05T18:01:54.102Z,101530.88
2023-04-05T18:04:21.901Z,101538.41
2023-04-05T18:06:49.098Z,101533.06
2023-04-05T18:09:16.177Z,101537.56
2023-04-05T18:11:43.148Z,101534.75
2023-04-05T18:14:10.160Z,101529.44
2023-04-05T18:16:37.689Z,101538.09
2023-04-05T18:19:05.029Z,101534.22
2023-04-05T18:21:32.672Z,101534.22
2023-04-05T18:23:59.624Z,101533.63
2023-04-05T18:26:26.543Z,101530.56
2023-04-05T18:29:00.083Z,101542.56
2023-04-05T18:31:27.586Z,101537.00
2023-04-05T18:33:54.588Z,101542.56
2023-04-05T18:36:21.692Z,101542.28
2023-04-05T18:38:48.667Z,101537.81
2023-04-05T18:41:15.661Z,101537.81
2023-04-05T18:43:42.685Z,101533.06
2023-04-05T18:46:09.716Z,101537.00
2023-04-05T18:48:39.252Z,101535.88
2023-04-05T18:51:06.517Z,101542.56
2023-04-05T18:53:33.497Z,101545.03
2023-04-05T18:56:00.375Z,101545.88
2023-04-05T18:58:27.230Z,101546.16
2023-04-05T19:00:55.707Z,101538.88
2023-04-05T19:03:22.683Z,101542.53
2023-04-05T19:05:51.037Z,101551.44
2023-04-05T19:08:19.014Z,101550.09
2023-04-05T19:10:45.946Z,101553.13
2023-04-05T19:13:12.776Z,101551.72
2023-04-05T19:15:40.225Z,101553.69
2023-04-05T19:18:07.291Z,101546.41
2023-04-05T19:20:34.229Z,101538.59
2023-04-05T19:23:01.289Z,101541.09
2023-04-05T19:25:28.166Z,101547.25
2023-04-05T19:27:56.473Z,101543.63
2023-04-05T19:30:24.432Z,101549.50
2023-04-05T19:32:53.219Z,101546.72
2023-04-05T19:35:20.204Z,101543.91
2023-04-05T19:37:47.034Z,101546.16
2023-04-05T19:40:13.983Z,101543.63
2023-04-05T19:42:47.909Z,101540.84
2023-04-05T19:45:21.733Z,101544.72
2023-04-05T19:47:48.913Z,101539.41
2023-04-05T19:50:27.561Z,101539.41
2023-04-05T19:52:54.427Z,101541.69
2023-04-05T19:55:32.065Z,101536.34
2023-04-05T19:57:59.629Z,101533.00
2023-04-05T20:00:35.392Z,101535.50
2023-04-05T20:03:02.820Z,101542.78
2023-04-05T20:05:39.056Z,101527.16
2023-04-05T20:08:07.725Z,101522.41
2023-04-05T20:10:40.867Z,101531.03
2023-04-05T20:13:07.806Z,101531.63
2023-04-05T20:15:39.110Z,101530.78
2023-04-05T20:18:07.082Z,101534.09
2023-04-05T20:20:34.538Z,101531.03
2023-04-05T20:23:01.473Z,101524.06
2023-04-05T20:25:38.487Z,101527.38
2023-04-05T20:28:23.431Z,101519.31
2023-04-05T20:30:50.384Z,101510.13
2023-04-05T20:33:27.219Z,101510.66
2023-04-05T20:35:54.102Z,101514.00
2023-04-05T20:38:21.071Z,101503.69
2023-04-05T20:40:47.907Z,101500.34
2023-04-05T20:43:14.782Z,101498.13
2023-04-05T20:45:42.405Z,101497.03
2023-04-05T20:48:09.448Z,101492.53
2023-04-05T20:50:36.784Z,101491.44
2023-04-05T20:53:06.160Z,101492.28
2023-04-05T20:55:33.094Z,101483.09
2023-04-05T20:57:59.994Z,101490.59
2023-04-05T21:00:27.045Z,101488.66
2023-04-05T21:02:54.024Z,101487.81
2023-04-05T21:05:20.995Z,101485.63
2023-04-05T21:07:47.800Z,101470.84
2023-04-05T21:10:14.937Z,101476.38
2023-04-05T21:12:41.770Z,101470.78
2023-04-05T21:15:09.071Z,101468.84
2023-04-05T21:17:36.120Z,101466.34
2023-04-05T21:20:02.971Z,101471.63
2023-04-05T21:22:29.765Z,101457.69
2023-04-05T21:24:56.656Z,101462.44
2023-04-05T21:27:24.472Z,101459.63
2023-04-05T21:29:51.626Z,101456.56
2023-04-05T21:32:18.513Z,101452.97
2023-04-05T21:34:45.316Z,101443.75
2023-04-05T21:37:12.196Z,101449.59
2023-04-05T21:39:39.046Z,101446.81
2023-04-05T21:42:05.999Z,101440.97
2023-04-05T21:44:32.851Z,101447.66
2023-04-05T21:47:00.569Z,101439.84
2023-04-05T21:49:27.421Z,101437.91
2023-04-05T21:51:54.286Z,101432.06
2023-04-05T21:54:21.236Z,101427.59
2023-04-05T21:56:48.117Z,101431.75
2023-04-05T21:59:14.982Z,101426.69
2023-04-05T22:01:41.933Z,101422.81
2023-04-05T22:04:08.835Z,101419.19
2023-04-05T22:06:35.893Z,101420.06
2023-04-05T22:09:02.707Z,101426.19
2023-04-05T22:11:29.821Z,101409.97
2023-04-05T22:13:56.710Z,101416.41
2023-04-05T22:16:23.682Z,101409.47
2023-04-05T22:18:50.685Z,101401.34
2023-04-05T22:21:17.494Z,101402.47
2023-04-05T22:23:44.377Z,101396.38
2023-04-05T22:26:11.184Z,101398.81
2023-04-05T22:28:38.164Z,101394.69
2023-04-05T22:31:05.205Z,101389.38
2023-04-05T22:33:32.042Z,101388.84
2023-04-05T22:35:58.974Z,101384.38
2023-04-05T22:38:26.124Z,101382.44
2023-04-05T22:40:52.978Z,101379.91
2023-04-05T22:43:19.887Z,101383.53
2023-04-05T22:45:49.839Z,101375.44
2023-04-05T22:48:16.861Z,101381.28
2023-04-05T22:50:43.624Z,101370.94
2023-04-05T22:53:10.449Z,101377.06
2023-04-05T22:55:40.108Z,101371.25
2023-04-05T22:58:07.501Z,101361.50
2023-04-05T23:00:38.609Z,101370.69
2023-04-05T23:03:05.956Z,101361.78
2023-04-05T23:05:32.839Z,101362.88
2023-04-05T23:07:59.635Z,101363.44
2023-04-05T23:10:26.487Z,101357.56
2023-04-05T23:12:53.390Z,101354.53
2023-04-05T23:15:20.247Z,101354.53
2023-04-05T23:17:50.058Z,101357.31
2023-04-05T23:20:16.969Z,101347.84
2023-04-05T23:22:43.786Z,101343.88
2023-04-05T23:25:12.890Z,101339.16
2023-04-05T23:27:39.743Z,101336.09
2023-04-05T23:30:08.288Z,101331.13
2023-04-05T23:32:35.091Z,101325.25
2023-04-05T23:35:01.911Z,101312.72
2023-04-05T23:37:28.668Z,101322.19
2023-04-05T23:39:55.499Z,101314.06
2023-04-05T23:42:22.430Z,101310.75
2023-04-05T23:44:49.320Z,101309.94
2023-04-05T23:47:16.468Z,101311.03
2023-04-05T23:49:43.321Z,101305.19
2023-04-05T23:52:10.136Z,101296.25
2023-04-05T23:54:39.122Z,101299.63
2023-04-05T23:57:05.972Z,101286.50
2023-04-05T23:59:32.798Z,101294.56
